createdAt,value
2019-01-19T09:46:57.551Z,100450.00
2019-01-19T09:49:23.753Z,100463.00
2019-01-19T09:51:49.944Z,100458.00
2019-01-19T09:54:16.154Z,100456.00
2019-01-19T09:56:42.356Z,100452.00
2019-01-19T09:59:08.566Z,100451.00
2019-01-19T10:01:34.755Z,100456.00
2019-01-19T10:04:00.965Z,100451.00
2019-01-19T10:06:27.162Z,100469.00
2019-01-19T10:08:53.366Z,100462.00
2019-01-19T10:11:19.556Z,100462.00
2019-01-19T10:13:46.055Z,100461.00
2019-01-19T10:16:12.247Z,100455.00
2019-01-19T10:18:38.449Z,100453.00
2019-01-19T10:21:05.135Z,100453.00
2019-01-19T10:23:31.340Z,100458.00
2019-01-19T10:25:57.530Z,100453.00
2019-01-19T10:28:23.744Z,100460.00
2019-01-19T10:30:51.459Z,100452.00
2019-01-19T10:33:19.327Z,100450.00
2019-01-19T10:35:45.566Z,100444.00
2019-01-19T10:38:11.759Z,100445.00
2019-01-19T10:40:37.966Z,100439.00
2019-01-19T10:43:04.162Z,100439.00
2019-01-19T10:45:30.458Z,100437.00
2019-01-19T10:47:56.856Z,100443.00
2019-01-19T10:50:23.169Z,100447.00
2019-01-19T10:52:49.457Z,100437.00
2019-01-19T10:55:21.169Z,100445.00
2019-01-19T10:57:47.481Z,100439.00
2019-01-19T11:00:24.292Z,100434.00
2019-01-19T11:02:50.684Z,100443.00
2019-01-19T11:05:16.882Z,100441.00
2019-01-19T11:07:44.976Z,100429.00
2019-01-19T11:10:21.515Z,100429.00
2019-01-19T11:12:48.004Z,100424.00
2019-01-19T11:15:16.808Z,100422.00
2019-01-19T11:17:43.107Z,100423.00
2019-01-19T11:20:14.116Z,100428.00
2019-01-19T11:22:40.294Z,100427.00
2019-01-19T11:25:08.404Z,100415.00
2019-01-19T11:27:34.598Z,100425.00
2019-01-19T11:30:00.796Z,100417.00
2019-01-19T11:32:26.984Z,100410.00
2019-01-19T11:34:53.197Z,100409.00
2019-01-19T11:37:19.492Z,100397.00
2019-01-19T11:39:45.681Z,100400.00
2019-01-19T11:42:11.873Z,100397.00
2019-01-19T11:44:38.069Z,100402.00
2019-01-19T11:47:04.261Z,100399.00
2019-01-19T11:49:30.470Z,100399.00
2019-01-19T11:51:56.654Z,100396.00
2019-01-19T11:54:22.950Z,100396.00
2019-01-19T11:56:49.154Z,100390.00
2019-01-19T11:59:15.650Z,100388.00
2019-01-19T12:01:41.835Z,100390.00
2019-01-19T12:04:08.031Z,100381.00
2019-01-19T12:06:34.227Z,100388.00
2019-01-19T12:09:00.426Z,100381.00
2019-01-19T12:11:26.627Z,100381.00
2019-01-19T12:13:52.817Z,100378.00
2019-01-19T12:16:19.011Z,100377.00
2019-01-19T12:18:45.202Z,100376.00
2019-01-19T12:21:11.418Z,100384.00
2019-01-19T12:23:37.698Z,100379.00
2019-01-19T12:26:03.901Z,100377.00
2019-01-19T12:28:30.097Z,100371.00
2019-01-19T12:30:56.297Z,100374.00
2019-01-19T12:33:22.489Z,100372.00
2019-01-19T12:35:48.688Z,100370.00
2019-01-19T12:38:14.875Z,100366.00
2019-01-19T12:40:41.070Z,100363.00
2019-01-19T12:43:12.368Z,100365.00
2019-01-19T12:45:42.869Z,100367.00
2019-01-19T12:48:09.159Z,100356.00
2019-01-19T12:50:35.454Z,100352.00
2019-01-19T12:53:01.638Z,100355.00
2019-01-19T12:55:27.849Z,100348.00
2019-01-19T12:57:54.041Z,100354.00
2019-01-19T13:00:25.045Z,100349.00
2019-01-19T13:02:51.737Z,100348.00
2019-01-19T13:05:33.153Z,100351.00
2019-01-19T13:07:59.481Z,100350.00
2019-01-19T13:10:34.266Z,100349.00
2019-01-19T13:13:02.263Z,100351.00
2019-01-19T13:16:07.895Z,100341.00
2019-01-19T13:18:39.787Z,100343.00
2019-01-19T13:21:31.677Z,100344.00
2019-01-19T13:24:26.089Z,100336.00
2019-01-19T13:27:09.810Z,100334.00
2019-01-19T13:29:50.577Z,100335.00
2019-01-19T13:32:43.202Z,100337.00
2019-01-19T13:35:53.222Z,100316.00
2019-01-19T13:38:30.895Z,100315.00
2019-01-19T13:41:32.285Z,100316.00
2019-01-19T13:44:32.290Z,100320.00
2019-01-19T13:47:15.442Z,100313.00
2019-01-19T13:50:13.254Z,100321.00
2019-01-19T13:53:26.481Z,100322.00
2019-01-19T13:56:36.985Z,100304.00
2019-01-19T13:59:20.581Z,100308.00
2019-01-19T14:02:19.508Z,100311.00
2019-01-19T14:05:28.431Z,100308.00
2019-01-19T14:08:49.725Z,100310.00
2019-01-19T14:11:45.529Z,100306.00
2019-01-19T14:14:29.800Z,100298.00
2019-01-19T14:17:30.717Z,100297.00
2019-01-19T14:20:11.601Z,100301.00
2019-01-19T14:23:03.865Z,100301.00
2019-01-19T14:25:44.640Z,100299.00
2019-01-19T14:28:27.620Z,100286.00
2019-01-19T14:31:08.395Z,100293.00
2019-01-19T14:33:46.354Z,100283.00
2019-01-19T14:36:33.062Z,100282.00
2019-01-19T14:39:24.406Z,100279.00
2019-01-19T14:42:05.132Z,100281.00
2019-01-19T14:45:10.262Z,100286.00
2019-01-19T14:48:39.215Z,100281.00
2019-01-19T14:51:34.278Z,100272.00
2019-01-19T14:55:08.972Z,100273.00
2019-01-19T14:57:49.688Z,100276.00
2019-01-19T15:00:45.164Z,100278.00
2019-01-19T15:03:32.129Z,100269.00
2019-01-19T15:06:24.645Z,100270.00
2019-01-19T15:09:07.876Z,100270.00
2019-01-19T15:11:59.587Z,100268.00
2019-01-19T15:15:04.830Z,100261.00
2019-01-19T15:18:12.850Z,100260.00
2019-01-19T15:20:53.566Z,100270.00
2019-01-19T15:23:40.670Z,100251.00
2019-01-19T15:26:15.342Z,100255.00
2019-01-19T15:28:53.217Z,100259.00
2019-01-19T15:31:25.140Z,100262.00
2019-01-19T15:34:11.599Z,100257.00
2019-01-19T15:37:06.749Z,100264.00
2019-01-19T15:39:59.802Z,100266.00
2019-01-19T15:42:39.865Z,100259.00
2019-01-19T15:45:32.691Z,100257.00
2019-01-19T15:48:26.676Z,100253.00
2019-01-19T15:51:10.389Z,100257.00
2019-01-19T15:54:03.586Z,100248.00
2019-01-19T15:56:55.947Z,100245.00
2019-01-19T15:59:33.450Z,100243.00
2019-01-19T16:02:35.901Z,100240.00
2019-01-19T16:05:39.643Z,100233.00
2019-01-19T16:08:32.647Z,100238.00
2019-01-19T16:11:24.163Z,100225.00
2019-01-19T16:14:25.254Z,100240.00
2019-01-19T16:17:14.681Z,100238.00
2019-01-19T16:20:12.078Z,100231.00
2019-01-19T16:22:50.283Z,100230.00
2019-01-19T16:25:36.403Z,100237.00
2019-01-19T16:28:25.145Z,100225.00
2019-01-19T16:31:27.689Z,100232.00
2019-01-19T16:34:19.498Z,100223.00
2019-01-19T16:36:57.387Z,100229.00
2019-01-19T16:39:54.892Z,100227.00
2019-01-19T16:42:53.534Z,100227.00
2019-01-19T16:45:43.654Z,100224.00
2019-01-19T16:48:24.135Z,100219.00
2019-01-19T16:50:56.038Z,100221.00
2019-01-19T16:53:50.829Z,100219.00
2019-01-19T16:56:54.461Z,100213.00
2019-01-19T16:59:26.375Z,100212.00
2019-01-19T17:02:25.857Z,100224.00
2019-01-19T17:05:00.736Z,100218.00
2019-01-19T17:08:01.521Z,100214.00
2019-01-19T17:10:51.646Z,100224.00
2019-01-19T17:13:29.006Z,100215.00
2019-01-19T17:16:15.165Z,100215.00
2019-01-19T17:18:49.975Z,100208.00
2019-01-19T17:21:59.985Z,100217.00
2019-01-19T17:24:51.362Z,100219.00
2019-01-19T17:27:44.306Z,100212.00
2019-01-19T17:30:28.581Z,100212.00
2019-01-19T17:33:20.088Z,100208.00
2019-01-19T17:35:54.759Z,100204.00
2019-01-19T17:38:37.891Z,100208.00
2019-01-19T17:41:32.481Z,100204.00
2019-01-19T17:44:33.668Z,100210.00
2019-01-19T17:47:23.544Z,100201.00
2019-01-19T17:50:06.783Z,100205.00
2019-01-19T17:52:44.791Z,100205.00
2019-01-19T17:55:21.724Z,100211.00
2019-01-19T17:58:14.052Z,100210.00
2019-01-19T18:01:23.488Z,100210.00
2019-01-19T18:03:58.134Z,100201.00
2019-01-19T18:06:35.329Z,100206.00
2019-01-19T18:09:39.677Z,100205.00
2019-01-19T18:12:20.195Z,100203.00
2019-01-19T18:14:52.103Z,100203.00
2019-01-19T18:18:06.951Z,100199.00
2019-01-19T18:20:41.994Z,100208.00
2019-01-19T18:23:16.672Z,100211.00
2019-01-19T18:25:51.538Z,100209.00
2019-01-19T18:28:29.866Z,100205.00
2019-01-19T18:31:42.423Z,100214.00
2019-01-19T18:34:34.447Z,100207.00
2019-01-19T18:37:32.948Z,100206.00
2019-01-19T18:40:13.844Z,100208.00
2019-01-19T18:42:51.469Z,100194.00
2019-01-19T18:45:26.143Z,100196.00
2019-01-19T18:48:28.990Z,100200.00
2019-01-19T18:51:21.580Z,100202.00
2019-01-19T18:53:59.255Z,100188.00
2019-01-19T18:56:48.709Z,100204.00
2019-01-19T18:59:35.521Z,100191.00
2019-01-19T19:02:19.782Z,100196.00
2019-01-19T19:04:54.435Z,100191.00
2019-01-19T19:07:32.418Z,100187.00
2019-01-19T19:10:24.970Z,100202.00
2019-01-19T19:13:08.515Z,100201.00
2019-01-19T19:15:57.646Z,100193.00
2019-01-19T19:18:57.772Z,100192.00
2019-01-19T19:21:52.655Z,100188.00
2019-01-19T19:24:47.114Z,100184.00
2019-01-19T19:27:33.981Z,100186.00
2019-01-19T19:30:15.163Z,100181.00
2019-01-19T19:33:16.860Z,100184.00
2019-01-19T19:36:23.197Z,100175.00
2019-01-19T19:39:06.801Z,100192.00
2019-01-19T19:42:02.156Z,100182.00
2019-01-19T19:44:51.211Z,100176.00
2019-01-19T19:47:55.968Z,100185.00
2019-01-19T19:51:11.437Z,100179.00
2019-01-19T19:53:37.635Z,100184.00
2019-01-19T19:56:03.516Z,100174.00
2019-01-19T19:58:30.647Z,100179.00
2019-01-19T20:00:57.029Z,100176.00
2019-01-19T20:03:23.229Z,100179.00
2019-01-19T20:05:49.422Z,100180.00
2019-01-19T20:08:15.620Z,100177.00
2019-01-19T20:10:41.807Z,100174.00
2019-01-19T20:13:08.263Z,100168.00
2019-01-19T20:15:34.459Z,100169.00
2019-01-19T20:18:00.650Z,100175.00
2019-01-19T20:20:26.852Z,100163.00
2019-01-19T20:22:53.053Z,100173.00
2019-01-19T20:25:19.261Z,100170.00
2019-01-19T20:27:46.327Z,100164.00
2019-01-19T20:30:16.166Z,100163.00
2019-01-19T20:32:42.355Z,100161.00
2019-01-19T20:35:09.061Z,100167.00
2019-01-19T20:37:35.250Z,100160.00
2019-01-19T20:40:05.259Z,100151.00
2019-01-19T20:42:31.452Z,100160.00
2019-01-19T20:44:57.661Z,100160.00
2019-01-19T20:47:23.853Z,100163.00
2019-01-19T20:49:50.054Z,100163.00
2019-01-19T20:52:16.252Z,100156.00
2019-01-19T20:54:42.455Z,100160.00
2019-01-19T20:57:08.660Z,100162.00
2019-01-19T20:59:34.867Z,100157.00
2019-01-19T21:02:01.308Z,100150.00
2019-01-19T21:04:27.516Z,100159.00
2019-01-19T21:06:53.707Z,100149.00
2019-01-19T21:09:19.908Z,100148.00
2019-01-19T21:11:46.100Z,100147.00
2019-01-19T21:14:12.310Z,100148.00
2019-01-19T21:16:38.510Z,100154.00
2019-01-19T21:19:04.722Z,100153.00
2019-01-19T21:21:30.925Z,100160.00
2019-01-19T21:23:57.123Z,100151.00
2019-01-19T21:26:23.318Z,100147.00
2019-01-19T21:28:49.514Z,100149.00
2019-01-19T21:31:15.711Z,100148.00
2019-01-19T21:33:41.914Z,100150.00
2019-01-19T21:36:08.103Z,100147.00
2019-01-19T21:38:34.294Z,100150.00
2019-01-19T21:41:00.496Z,100149.00
2019-01-19T21:43:26.686Z,100147.00
2019-01-19T21:45:52.890Z,100140.00
2019-01-19T21:48:19.084Z,100147.00
2019-01-19T21:50:45.287Z,100145.00
2019-01-19T21:53:11.475Z,100145.00
2019-01-19T21:55:37.677Z,100136.00
2019-01-19T21:58:04.089Z,100139.00
2019-01-19T22:00:30.299Z,100134.00
2019-01-19T22:02:56.495Z,100143.00
2019-01-19T22:05:22.700Z,100143.00
2019-01-19T22:07:49.164Z,100133.00
2019-01-19T22:10:19.171Z,100138.00
2019-01-19T22:12:45.663Z,100135.00
2019-01-19T22:15:15.279Z,100134.00
2019-01-19T22:17:41.470Z,100126.00
2019-01-19T22:20:11.278Z,100134.00
2019-01-19T22:22:37.466Z,100127.00
2019-01-19T22:25:05.868Z,100128.00
2019-01-19T22:27:32.365Z,100133.00
2019-01-19T22:29:58.569Z,100123.00
2019-01-19T22:32:24.767Z,100118.00
2019-01-19T22:34:50.991Z,100124.00
2019-01-19T22:37:32.574Z,100124.00
2019-01-19T22:40:21.631Z,100121.00
2019-01-19T22:42:54.734Z,100120.00
2019-01-19T22:45:50.745Z,100122.00
2019-01-19T22:48:16.937Z,100105.00
2019-01-19T22:50:43.522Z,100114.00
2019-01-19T22:53:15.583Z,100114.00
2019-01-19T22:55:45.197Z,100110.00
2019-01-19T22:58:14.807Z,100115.00
2019-01-19T23:01:02.989Z,100119.00
2019-01-19T23:03:31.381Z,100116.00
2019-01-19T23:05:57.963Z,100108.00
2019-01-19T23:08:39.445Z,100116.00
2019-01-19T23:11:05.855Z,100110.00
2019-01-19T23:13:32.040Z,100109.00
2019-01-19T23:15:58.233Z,100115.00
2019-01-19T23:18:24.423Z,100113.00
2019-01-19T23:20:50.629Z,100110.00
2019-01-19T23:23:16.828Z,100110.00
2019-01-19T23:25:43.032Z,100103.00
2019-01-19T23:28:09.230Z,100105.00
2019-01-19T23:30:58.230Z,100100.00
2019-01-19T23:33:24.422Z,100106.00
2019-01-19T23:35:50.625Z,100101.00
2019-01-19T23:38:16.817Z,100102.00
2019-01-19T23:40:43.020Z,100103.00
2019-01-19T23:43:09.206Z,100104.00
2019-01-19T23:45:35.414Z,100108.00
2019-01-19T23:48:01.591Z,100101.00
2019-01-19T23:50:27.790Z,100095.00
2019-01-19T23:52:53.983Z,100102.00
2019-01-19T23:55:20.183Z,100096.00
2019-01-19T23:57:46.379Z,100095.00
